Ana Sayfa
METAR-TAF:

METAR-TAF

Havaalanları :

Frankfort, Michigan, Amerika Birleşik Devletleri

Enlem: 44-37-30N, Boylam: 086-12-02W, yükseklik: 193 m

Güncel hava durumu gözlemi

Rapor saat 20:55 UTC de 9 dakika önce yapıldı.
Rüzgar kuzeydan 10 kt ve 15 kt'a kadar ani rüzgarlar
Sıcaklık 13°C
Nem 47%
Basınç 1019 hPa
Görüş mesafesi: 16.1 km
Açık gökyüzü

METAR: KFKS 202055Z AUTO 35010G15KT 10SM CLR 13/02 A3009 RMK AO2 T01270023

Saat: 17:04 (21:04 UTC)


TAF: eksik

4.000'den fazla havaalanı için hava durumu gözlemleri ve tahminleri (METAR ve TAF raporları).

Kullanılabilir istasyonlar harita üzerinde sarı ve kırmızı noktalarla gösterilir.

İstasyonun adını görmek için fareyi noktanın üzerinde gezdirin.

Sonrasında hava gözlem ve tahminlerini görmek için tıklayın.

Haritayı değiştirmek için: yaklaştırmak için siyah artı işaretli yeşil düğmeye ve uzaklaştırmak için de eksi işaretli düğmeye hızla tıklayın; bitişik haritalar için yeşil okları kullanın.


METAR-TAF: